Kezdőlap
METAR-TAF:

METAR-TAF

Repülőterek :

Pekingi nemzetközi repülőtér

Peking, Kína

földrajzi szélesség: 39-56N, földrajzi hosszúság: 116-17E, magasság: 55 m

Jelenlegi meteorológiai megfigyelések

A jelentés 41 perccel ezelõtt készült, 21:30 UTC
Északi szél 10 kt
Hőmérséklet -1°C
Páratartalom 24%
Légköri nyomás 1027 hPa
Látótávolság 10 km, vagy több
felhőtlen 1500 m magasságban, és nincs gomolyfelhõ

METAR: ZBAA 182130Z 01005MPS CAVOK M01/M19 Q1027 NOSIG

Idő: 06:11 (22:11 UTC)

Előrejelzés

A jelentés 6 órával és 51 perccel ezelõtt készült, 15:20 UTC
Az előrejelzés 18-én 18 óra UTC és 19-én 18 óra UTC között érvényes
Észak-északnyugati szél 8 kt
Látótávolság 10 km, vagy több
felhőtlen 1500 m magasságban, és nincs gomolyfelhõ

TAF: ZBAA 181520Z 1818/1918 34004MPS CAVOK TX06/1907Z TNM08/21Z

Meteorológiai megfigyelések és előrejelzések több, mint 4000 repülőtéren (METAR és TAF jelentéseket).

A térképen piros és sárga pontok jelzik az elérhető meteorológiai állomásokat.

Mozgassa az egeret a pont fölött, hogy megjelenjen az állomás neve.

Azután kattintson az időjárási megfigyelések és előrejelzések megtekintéséhez.

A térkép megváltoztatása: kattintson a fekete keresztel jelölt zöld gombra ráközelítéshez, a vonallal jelölt zöld gombra távolításhoz, vagy a zöld nyilakra a szomszédos térképek eléréséhez.


METAR-TAF: